createdAt,value
2022-12-04T00:05:08.130Z,101862.16
2022-12-04T00:10:15.178Z,101854.64
2022-12-04T00:15:25.659Z,101849.45
2022-12-04T00:20:33.377Z,101843.92
2022-12-04T00:25:41.473Z,101845.39
2022-12-04T00:30:48.928Z,101845.55
2022-12-04T00:36:01.600Z,101851.54
2022-12-04T00:41:11.210Z,101857.83
2022-12-04T00:46:18.658Z,101866.52
2022-12-04T00:51:27.055Z,101862.30
2022-12-04T00:56:34.188Z,101858.33
2022-12-04T01:01:41.318Z,101851.34
2022-12-04T01:06:49.494Z,101845.75
2022-12-04T01:11:56.896Z,101839.95
2022-12-04T01:17:03.795Z,101832.43
2022-12-04T01:22:10.691Z,101824.10
2022-12-04T01:27:17.564Z,101821.89
2022-12-04T01:32:24.443Z,101817.45
2022-12-04T01:37:33.024Z,101821.97
2022-12-04T01:42:39.909Z,101826.11
2022-12-04T01:47:47.243Z,101826.45
2022-12-04T01:52:54.490Z,101827.61
2022-12-04T01:58:02.709Z,101822.45
2022-12-04T02:03:09.862Z,101819.45
2022-12-04T02:08:17.505Z,101814.92
2022-12-04T02:13:28.951Z,101812.55
2022-12-04T02:18:42.247Z,101805.67
2022-12-04T02:24:11.767Z,101803.17
2022-12-04T02:29:27.194Z,101801.55
2022-12-04T02:34:42.501Z,101795.58
2022-12-04T02:39:57.269Z,101788.20
2022-12-04T02:45:08.436Z,101786.81
2022-12-04T02:50:18.102Z,101782.57
2022-12-04T02:55:30.345Z,101780.27
2022-12-04T03:00:38.951Z,101774.55
2022-12-04T03:05:56.493Z,101773.44
2022-12-04T03:11:04.744Z,101771.64
2022-12-04T03:16:15.615Z,101776.66
2022-12-04T03:21:26.025Z,101776.09
2022-12-04T03:26:38.029Z,101776.49
2022-12-04T03:31:48.830Z,101772.13
2022-12-04T03:36:58.091Z,101772.70
2022-12-04T03:42:10.461Z,101774.83
2022-12-04T03:47:22.160Z,101776.63
2022-12-04T03:52:37.539Z,101759.52
2022-12-04T03:57:47.992Z,101760.34
2022-12-04T04:02:59.782Z,101757.11
2022-12-04T04:08:23.018Z,101758.17
2022-12-04T04:13:53.081Z,101749.00
2022-12-04T04:19:19.510Z,101752.32
2022-12-04T04:24:31.718Z,101748.92
2022-12-04T04:29:39.217Z,101752.56
2022-12-04T04:34:57.286Z,101755.23
2022-12-04T04:40:12.541Z,101751.46
2022-12-04T04:45:29.957Z,101747.70
2022-12-04T04:50:38.158Z,101755.43
2022-12-04T04:55:45.540Z,101755.97
2022-12-04T05:00:59.093Z,101758.10
2022-12-04T05:06:06.777Z,101764.23
2022-12-04T05:11:16.386Z,101765.87
2022-12-04T05:16:23.667Z,101778.28
2022-12-04T05:21:30.891Z,101790.17
2022-12-04T05:26:37.974Z,101788.50
2022-12-04T05:31:44.939Z,101789.69
2022-12-04T05:36:51.856Z,101780.20
2022-12-04T05:41:58.727Z,101775.58
2022-12-04T05:47:05.720Z,101769.92
2022-12-04T05:52:12.781Z,101770.09
2022-12-04T05:57:19.702Z,101762.39
2022-12-04T06:02:26.630Z,101766.66
2022-12-04T06:07:33.704Z,101775.16
2022-12-04T06:12:40.679Z,101775.52
2022-12-04T06:17:47.518Z,101773.43
2022-12-04T06:22:54.375Z,101770.78
2022-12-04T06:28:01.248Z,101767.83
2022-12-04T06:33:08.182Z,101766.52
2022-12-04T06:38:15.116Z,101762.39
2022-12-04T06:43:22.074Z,101765.09
2022-12-04T06:48:29.537Z,101781.67
2022-12-04T06:53:37.140Z,101773.56
2022-12-04T06:58:44.065Z,101775.54
2022-12-04T07:03:52.029Z,101783.14
2022-12-04T07:08:59.653Z,101793.09
2022-12-04T07:14:07.260Z,101786.33
2022-12-04T07:19:15.123Z,101782.48
2022-12-04T07:24:22.043Z,101779.20
2022-12-04T07:29:28.948Z,101784.56
2022-12-04T07:34:38.683Z,101775.98
2022-12-04T07:39:45.684Z,101773.52
2022-12-04T07:44:52.607Z,101769.50
2022-12-04T07:49:59.531Z,101771.14
2022-12-04T07:55:07.810Z,101767.29
2022-12-04T08:00:17.920Z,101764.55
2022-12-04T08:05:24.861Z,101764.30
2022-12-04T08:10:31.834Z,101771.20
2022-12-04T08:15:38.847Z,101776.42
2022-12-04T08:20:45.948Z,101782.33
2022-12-04T08:25:52.858Z,101787.64
2022-12-04T08:31:05.794Z,101788.42
2022-12-04T08:36:17.679Z,101789.07
2022-12-04T08:41:26.356Z,101790.51
2022-12-04T08:46:33.473Z,101785.56
2022-12-04T08:51:40.797Z,101791.57
2022-12-04T08:56:47.696Z,101794.19
2022-12-04T09:01:54.858Z,101797.41
2022-12-04T09:07:02.013Z,101799.38
2022-12-04T09:12:09.107Z,101799.30
2022-12-04T09:17:16.079Z,101801.46
2022-12-04T09:22:22.997Z,101797.45
2022-12-04T09:27:29.927Z,101786.73
2022-12-04T09:32:36.993Z,101778.99
2022-12-04T09:37:43.925Z,101764.08
2022-12-04T09:43:00.773Z,101758.59
2022-12-04T09:48:12.477Z,101766.45
2022-12-04T09:53:24.580Z,101768.64
2022-12-04T09:58:41.726Z,101768.39
2022-12-04T10:03:48.985Z,101765.07
2022-12-04T10:09:02.543Z,101766.65
2022-12-04T10:14:42.641Z,101770.98
2022-12-04T10:19:58.747Z,101772.27
2022-12-04T10:25:13.284Z,101766.90
2022-12-04T10:30:24.560Z,101751.27
2022-12-04T10:35:34.063Z,101748.88
2022-12-04T10:40:46.657Z,101746.08
2022-12-04T10:45:53.665Z,101759.02
2022-12-04T10:51:00.737Z,101756.70
2022-12-04T10:56:18.680Z,101757.35
2022-12-04T11:01:26.722Z,101760.91
2022-12-04T11:06:34.456Z,101758.83
2022-12-04T11:11:41.382Z,101757.06
2022-12-04T11:16:50.829Z,101765.78
2022-12-04T11:22:01.714Z,101758.45
2022-12-04T11:27:17.829Z,101748.38
2022-12-04T11:32:30.332Z,101747.73
2022-12-04T11:37:42.053Z,101748.30
2022-12-04T11:43:03.707Z,101747.66
2022-12-04T11:48:16.158Z,101741.80
2022-12-04T11:53:32.309Z,101739.95
2022-12-04T11:58:56.709Z,101739.21
2022-12-04T12:04:21.493Z,101742.27
2022-12-04T12:09:34.456Z,101740.48
2022-12-04T12:14:50.011Z,101740.63
2022-12-04T12:20:13.884Z,101728.74
2022-12-04T12:25:27.689Z,101717.52
2022-12-04T12:30:40.942Z,101705.52
2022-12-04T12:35:52.919Z,101709.33
2022-12-04T12:41:17.302Z,101720.69
2022-12-04T12:46:36.719Z,101714.22
2022-12-04T12:51:52.065Z,101713.02
2022-12-04T12:57:06.987Z,101704.67
2022-12-04T13:02:24.524Z,101698.12
2022-12-04T13:07:43.368Z,101707.66
2022-12-04T13:12:56.432Z,101706.08
2022-12-04T13:18:04.723Z,101707.42
2022-12-04T13:23:24.106Z,101707.72
2022-12-04T13:28:46.868Z,101700.89
2022-12-04T13:34:06.738Z,101695.02
2022-12-04T13:39:36.677Z,101696.84
2022-12-04T13:44:43.655Z,101694.91
2022-12-04T13:49:52.283Z,101700.39
2022-12-04T13:55:02.395Z,101703.76
2022-12-04T14:00:27.218Z,101702.32
2022-12-04T14:05:41.950Z,101710.63
2022-12-04T14:11:00.843Z,101721.08
2022-12-04T14:16:17.568Z,101714.55
2022-12-04T14:21:25.025Z,101713.95
2022-12-04T14:26:56.013Z,101723.40
2022-12-04T14:32:00.746Z,101717.30
2022-12-04T14:37:08.223Z,101724.23
2022-12-04T14:42:19.272Z,101723.45
2022-12-04T14:47:51.831Z,101721.15
2022-12-04T14:53:07.144Z,101711.29
2022-12-04T14:58:32.703Z,101701.08
2022-12-04T15:03:46.046Z,101711.36
2022-12-04T15:09:16.327Z,101716.48
2022-12-04T15:14:23.640Z,101707.32
2022-12-04T15:19:30.521Z,101706.97
2022-12-04T15:24:39.875Z,101704.55
2022-12-04T15:29:48.555Z,101700.50
2022-12-04T15:34:59.825Z,101698.04
2022-12-04T15:40:12.166Z,101696.90
2022-12-04T15:45:39.123Z,101702.54
2022-12-04T15:50:56.291Z,101709.63
2022-12-04T15:56:06.028Z,101692.19
2022-12-04T16:01:15.737Z,101689.20
2022-12-04T16:06:25.226Z,101691.86
2022-12-04T16:11:38.400Z,101698.66
2022-12-04T16:16:47.902Z,101697.02
2022-12-04T16:21:55.260Z,101697.67
2022-12-04T16:27:04.561Z,101702.00
2022-12-04T16:32:13.858Z,101705.73
2022-12-04T16:37:22.966Z,101702.05
2022-12-04T16:42:31.094Z,101701.23
2022-12-04T16:47:37.905Z,101699.35
2022-12-04T16:52:44.882Z,101717.68
2022-12-04T16:57:51.768Z,101724.45
2022-12-04T17:02:58.730Z,101722.16
2022-12-04T17:08:05.925Z,101718.92
2022-12-04T17:13:12.861Z,101716.17
2022-12-04T17:18:21.471Z,101721.27
2022-12-04T17:23:28.676Z,101734.28
2022-12-04T17:28:36.967Z,101725.02
2022-12-04T17:33:44.404Z,101737.71
2022-12-04T17:38:53.615Z,101734.89
2022-12-04T17:44:02.100Z,101738.94
2022-12-04T17:49:09.118Z,101740.73
2022-12-04T17:54:16.233Z,101746.72
2022-12-04T17:59:23.148Z,101745.23
2022-12-04T18:04:30.142Z,101746.14
2022-12-04T18:09:37.569Z,101749.73
2022-12-04T18:14:44.762Z,101743.27
2022-12-04T18:19:51.734Z,101737.79
2022-12-04T18:24:58.706Z,101741.50
2022-12-04T18:30:07.047Z,101741.39
2022-12-04T18:35:14.099Z,101736.45
2022-12-04T18:40:21.040Z,101738.32
2022-12-04T18:45:28.122Z,101738.48
2022-12-04T18:50:35.284Z,101743.92
2022-12-04T18:55:42.348Z,101752.04
2022-12-04T19:00:49.711Z,101751.27
2022-12-04T19:05:56.733Z,101756.24
2022-12-04T19:11:10.394Z,101747.70
2022-12-04T19:16:18.962Z,101749.49
2022-12-04T19:21:26.255Z,101758.09
2022-12-04T19:26:35.397Z,101765.87
2022-12-04T19:31:42.391Z,101773.69
2022-12-04T19:36:50.307Z,101777.20
2022-12-04T19:41:59.393Z,101775.73
2022-12-04T19:47:09.501Z,101779.38
2022-12-04T19:52:16.897Z,101776.34
2022-12-04T19:57:24.024Z,101770.94
2022-12-04T20:02:31.071Z,101766.45
2022-12-04T20:07:38.170Z,101762.92
2022-12-04T20:12:45.204Z,101766.69
2022-12-04T20:17:53.492Z,101759.64
2022-12-04T20:23:00.569Z,101758.61
2022-12-04T20:28:12.917Z,101758.39
2022-12-04T20:33:21.420Z,101763.90
2022-12-04T20:38:28.431Z,101760.43
2022-12-04T20:43:35.578Z,101767.25
2022-12-04T20:48:49.285Z,101765.91
2022-12-04T20:53:58.895Z,101762.43
2022-12-04T20:59:08.448Z,101777.33
2022-12-04T21:04:18.091Z,101778.15
2022-12-04T21:09:26.832Z,101772.41
2022-12-04T21:14:52.666Z,101776.55
2022-12-04T21:20:05.685Z,101776.02
2022-12-04T21:25:14.958Z,101778.75
2022-12-04T21:30:22.079Z,101786.98
2022-12-04T21:35:29.317Z,101785.84
2022-12-04T21:40:42.129Z,101786.01
2022-12-04T21:46:08.882Z,101778.67
2022-12-04T21:51:33.031Z,101775.36
2022-12-04T21:56:43.630Z,101777.69
2022-12-04T22:01:50.810Z,101770.95
2022-12-04T22:06:57.825Z,101768.16
2022-12-04T22:12:20.242Z,101758.98
2022-12-04T22:17:32.952Z,101752.77
2022-12-04T22:22:39.803Z,101746.17
2022-12-04T22:27:47.005Z,101743.14
2022-12-04T22:32:54.273Z,101735.09
2022-12-04T22:38:01.474Z,101731.85
2022-12-04T22:43:08.416Z,101726.09
2022-12-04T22:48:15.304Z,101720.81
2022-12-04T22:53:22.271Z,101702.92
2022-12-04T22:58:29.250Z,101695.39
2022-12-04T23:03:36.417Z,101691.74
2022-12-04T23:08:45.085Z,101696.30
2022-12-04T23:13:55.396Z,101698.22
2022-12-04T23:19:02.359Z,101692.73
2022-12-04T23:24:10.203Z,101695.75
2022-12-04T23:29:44.943Z,101702.35
2022-12-04T23:34:43.921Z,101701.00
2022-12-04T23:39:50.740Z,101706.60
2022-12-04T23:44:57.643Z,101705.89
2022-12-04T23:50:05.459Z,101714.55
2022-12-04T23:55:12.527Z,101713.80
